Time;durP1;ratioP1;P1;durP2;ratioP2;P2;SDS_P1;SDS_P2;PMS_P1;PMS_P2;Temp;Humidity;BMP_temperature;BMP_pressure;BME280_temperature;BME280_humidity;BME280_pressure;Samples;Min_cycle;Max_cycle;Signal;HPM_P1;HPM_P2
2022/07/18 00:01:48;;;;;;;7.13;2.87;;;19.00;1.00;;;;;;5110288;28;20427;-77
2022/07/18 00:04:14;;;;;;;6.10;2.93;;;18.90;1.00;;;;;;5093246;28;20179;-78
2022/07/18 00:06:40;;;;;;;4.37;2.97;;;18.80;1.00;;;;;;5110335;28;20186;-77
2022/07/18 00:09:05;;;;;;;4.80;2.53;;;18.70;1.00;;;;;;5092089;28;20289;-77
2022/07/18 00:11:31;;;;;;;4.57;2.27;;;18.70;1.00;;;;;;5107871;28;20299;-77
2022/07/18 00:13:56;;;;;;;5.00;2.77;;;18.70;1.00;;;;;;5110579;28;20567;-77
2022/07/18 00:16:22;;;;;;;3.90;2.63;;;18.60;1.00;;;;;;5109853;28;20666;-78
2022/07/18 00:18:48;;;;;;;7.77;2.77;;;18.90;1.00;;;;;;5107455;28;20698;-76
2022/07/18 00:21:15;;;;;;;4.97;2.90;;;18.60;1.00;;;;;;5109217;28;20460;-77
2022/07/18 00:23:40;;;;;;;5.70;2.63;;;18.50;1.00;;;;;;5106089;28;20899;-77
2022/07/18 00:26:06;;;;;;;4.77;2.50;;;18.50;1.00;;;;;;5089111;28;20444;-77
2022/07/18 00:28:32;;;;;;;4.20;2.60;;;18.40;1.00;;;;;;5109984;28;20203;-77
2022/07/18 00:30:57;;;;;;;4.93;2.80;;;18.50;1.00;;;;;;5108727;28;20190;-77
2022/07/18 00:33:23;;;;;;;4.40;2.70;;;18.50;1.00;;;;;;5108888;28;20236;-77
2022/07/18 00:35:48;;;;;;;3.63;2.50;;;18.50;1.00;;;;;;5109217;28;20224;-77
2022/07/18 00:38:14;;;;;;;6.43;2.80;;;18.40;1.00;;;;;;5109700;28;20582;-77
2022/07/18 00:40:40;;;;;;;5.83;2.53;;;18.30;1.00;;;;;;5102530;28;20174;-77
2022/07/18 00:43:05;;;;;;;3.73;2.70;;;18.30;1.00;;;;;;5107629;28;20186;-77
2022/07/18 00:45:31;;;;;;;3.93;2.33;;;18.10;1.00;;;;;;5108780;28;20175;-78
2022/07/18 00:47:56;;;;;;;4.97;2.57;;;18.00;1.00;;;;;;5109607;28;20282;-77
2022/07/18 00:50:23;;;;;;;3.40;2.50;;;17.90;1.00;;;;;;5086318;28;20700;-77
2022/07/18 00:52:49;;;;;;;5.07;2.60;;;17.90;1.00;;;;;;5090994;28;20633;-77
2022/07/18 00:55:15;;;;;;;4.47;2.57;;;17.90;1.00;;;;;;5100952;28;20472;-77
2022/07/18 00:57:42;;;;;;;8.10;2.70;;;18.00;1.00;;;;;;5091805;28;20191;-77
2022/07/18 01:02:57;;;;;;;4.10;2.37;;;17.90;1.00;;;;;;5109171;28;20485;-77
2022/07/18 01:05:22;;;;;;;5.00;2.80;;;17.90;1.00;;;;;;5102631;28;20436;-77
2022/07/18 01:07:49;;;;;;;4.80;2.50;;;17.90;1.00;;;;;;5091166;28;20437;-77
2022/07/18 01:10:15;;;;;;;7.47;2.90;;;17.90;1.00;;;;;;5108533;28;20187;-77
2022/07/18 01:12:40;;;;;;;5.20;2.93;;;17.90;1.00;;;;;;5109296;28;20424;-77
2022/07/18 01:15:06;;;;;;;4.23;2.43;;;17.90;1.00;;;;;;5100957;28;20235;-76
2022/07/18 01:17:32;;;;;;;4.17;2.53;;;17.80;1.00;;;;;;5107485;28;20317;-77
2022/07/18 01:19:58;;;;;;;7.03;2.67;;;17.70;1.00;;;;;;5107828;28;20440;-77
2022/07/18 01:22:24;;;;;;;4.03;2.60;;;17.70;1.00;;;;;;5108229;28;20258;-77
2022/07/18 01:24:49;;;;;;;3.60;2.37;;;17.70;1.00;;;;;;5106579;28;20636;-77
2022/07/18 01:27:18;;;;;;;6.47;2.80;;;19.30;1.00;;;;;;5108375;28;20258;-77
2022/07/18 01:29:45;;;;;;;3.43;2.40;;;17.70;1.00;;;;;;5108706;28;20224;-77
2022/07/18 01:32:12;;;;;;;4.63;2.70;;;17.70;1.00;;;;;;5108076;28;20405;-77
2022/07/18 01:34:37;;;;;;;3.10;2.23;;;17.60;1.00;;;;;;5105136;28;20617;-77
2022/07/18 01:37:04;;;;;;;4.10;2.87;;;17.50;1.00;;;;;;5108800;28;20520;-77
2022/07/18 01:39:30;;;;;;;4.33;2.30;;;17.40;1.00;;;;;;5107038;28;20289;-78
2022/07/18 01:42:06;;;;;;;3.47;2.40;;;17.50;1.00;;;;;;5089814;28;20883;-77
2022/07/18 01:44:34;;;;;;;2.97;2.60;;;17.40;1.00;;;;;;5107304;28;20179;-78
2022/07/18 01:47:00;;;;;;;3.83;2.70;;;17.30;1.00;;;;;;5108232;28;20428;-77
2022/07/18 01:49:26;;;;;;;5.67;2.50;;;17.10;1.00;;;;;;5107685;28;20508;-77
2022/07/18 01:51:53;;;;;;;7.43;2.20;;;17.70;1.00;;;;;;5108496;28;20409;-77
2022/07/18 01:54:21;;;;;;;5.73;2.10;;;17.00;1.00;;;;;;5105029;28;20830;-78
2022/07/18 01:56:47;;;;;;;5.03;2.57;;;17.00;1.00;;;;;;5103224;28;20475;-78
2022/07/18 01:59:12;;;;;;;6.37;2.30;;;17.00;1.00;;;;;;5106516;28;20957;-77
2022/07/18 02:01:38;;;;;;;2.83;2.10;;;16.90;1.00;;;;;;5107731;28;20262;-77
2022/07/18 02:04:04;;;;;;;7.03;2.80;;;16.90;1.00;;;;;;5088138;28;20560;-77
2022/07/18 02:06:29;;;;;;;6.17;2.50;;;16.80;1.00;;;;;;5090060;28;20791;-77
2022/07/18 02:08:55;;;;;;;4.70;2.33;;;16.80;1.00;;;;;;5103195;28;20211;-77
2022/07/18 02:11:21;;;;;;;7.43;2.60;;;16.70;1.00;;;;;;5110874;27;20175;-77
2022/07/18 02:13:46;;;;;;;3.20;2.00;;;16.60;1.00;;;;;;5106241;28;20232;-77
2022/07/18 02:16:12;;;;;;;3.53;2.20;;;16.60;1.00;;;;;;5107907;28;20428;-78
2022/07/18 02:18:37;;;;;;;4.20;2.30;;;16.50;1.00;;;;;;5106329;28;20218;-77
2022/07/18 02:21:03;;;;;;;8.77;2.50;;;16.40;1.00;;;;;;5107993;28;20171;-77
2022/07/18 02:23:29;;;;;;;3.03;2.50;;;16.40;1.00;;;;;;5081553;28;20191;-77
2022/07/18 02:25:55;;;;;;;4.83;2.00;;;16.40;1.00;;;;;;5088294;28;20186;-77
2022/07/18 02:28:21;;;;;;;2.83;2.17;;;16.40;1.00;;;;;;5082502;28;20729;-77
2022/07/18 02:30:48;;;;;;;5.20;2.60;;;16.40;1.00;;;;;;5087927;28;20533;-77
2022/07/18 02:33:14;;;;;;;4.07;2.77;;;16.40;1.00;;;;;;5105846;28;20432;-77
2022/07/18 02:35:39;;;;;;;7.97;2.47;;;16.40;1.00;;;;;;5107132;28;20970;-77
2022/07/18 02:38:05;;;;;;;5.80;2.40;;;16.30;1.00;;;;;;5103933;28;20740;-78
2022/07/18 02:40:30;;;;;;;3.53;2.60;;;16.30;1.00;;;;;;5108152;28;20240;-77
2022/07/18 02:42:56;;;;;;;4.10;2.33;;;16.20;1.00;;;;;;5087595;28;20193;-77
2022/07/18 02:45:22;;;;;;;3.57;2.30;;;16.10;1.00;;;;;;5106777;28;20522;-77
2022/07/18 02:47:47;;;;;;;3.13;2.33;;;16.10;1.00;;;;;;5088536;28;20722;-76
2022/07/18 02:50:13;;;;;;;2.87;1.97;;;16.00;1.00;;;;;;5106558;28;20386;-76
2022/07/18 02:52:40;;;;;;;2.40;2.10;;;15.90;1.00;;;;;;5087433;28;20440;-76
2022/07/18 02:55:06;;;;;;;4.40;2.27;;;15.90;1.00;;;;;;5106359;28;20263;-77
2022/07/18 02:57:32;;;;;;;3.57;2.23;;;15.80;1.00;;;;;;5112490;28;20463;-77
2022/07/18 02:59:58;;;;;;;3.90;2.60;;;15.80;1.00;;;;;;5113558;27;20437;-75
2022/07/18 03:02:24;;;;;;;4.13;2.53;;;15.60;1.00;;;;;;5112959;28;20174;-75
2022/07/18 03:04:50;;;;;;;4.10;2.37;;;15.60;1.00;;;;;;5114608;28;20178;-75
2022/07/18 03:07:16;;;;;;;3.80;2.27;;;15.50;1.00;;;;;;5096303;28;20486;-75
2022/07/18 03:09:41;;;;;;;3.80;2.20;;;15.50;1.00;;;;;;5111758;28;20192;-75
2022/07/18 03:12:07;;;;;;;4.73;2.60;;;15.60;1.00;;;;;;5114756;28;20175;-75
2022/07/18 03:14:32;;;;;;;5.30;2.67;;;15.60;1.00;;;;;;5113173;28;20552;-76
2022/07/18 03:16:58;;;;;;;4.10;2.13;;;15.60;1.00;;;;;;5112382;28;20205;-75
2022/07/18 03:19:23;;;;;;;3.77;2.50;;;15.60;1.00;;;;;;5113057;28;20210;-75
2022/07/18 03:21:50;;;;;;;6.80;2.73;;;15.70;1.00;;;;;;5114019;28;20187;-75
2022/07/18 03:24:15;;;;;;;7.40;2.53;;;15.80;1.00;;;;;;5112965;28;20829;-75
2022/07/18 03:26:41;;;;;;;4.63;2.23;;;15.80;1.00;;;;;;5093796;28;20479;-75
2022/07/18 03:29:07;;;;;;;9.83;2.80;;;15.70;1.00;;;;;;5112989;28;20280;-75
2022/07/18 03:31:32;;;;;;;11.60;2.37;;;15.80;1.00;;;;;;5113719;28;20755;-76
2022/07/18 03:33:59;;;;;;;4.50;2.17;;;15.60;1.00;;;;;;5094619;28;20245;-75
2022/07/18 03:36:24;;;;;;;3.50;2.20;;;15.70;1.00;;;;;;5113160;28;20178;-75
2022/07/18 03:38:50;;;;;;;4.40;2.50;;;15.70;1.00;;;;;;5112497;27;20878;-75
2022/07/18 03:41:16;;;;;;;6.10;2.57;;;15.60;1.00;;;;;;5113441;28;20243;-75
2022/07/18 03:43:41;;;;;;;3.03;2.57;;;15.70;1.00;;;;;;5112549;28;20209;-75
2022/07/18 03:46:07;;;;;;;5.10;2.30;;;15.70;1.00;;;;;;5113460;28;20178;-75
2022/07/18 03:48:33;;;;;;;5.73;2.60;;;15.70;1.00;;;;;;5094417;28;20762;-75
2022/07/18 03:50:59;;;;;;;6.70;2.60;;;15.70;1.00;;;;;;5094303;28;20465;-75
2022/07/18 03:53:26;;;;;;;6.03;2.67;;;15.70;1.00;;;;;;5094680;28;20167;-75
2022/07/18 03:55:52;;;;;;;2.60;2.20;;;15.70;1.00;;;;;;5092318;28;21011;-75
2022/07/18 03:58:17;;;;;;;3.47;2.20;;;15.70;1.00;;;;;;5112495;28;20444;-76
2022/07/18 04:00:43;;;;;;;4.97;2.40;;;15.70;1.00;;;;;;5094814;28;20266;-75
2022/07/18 04:03:08;;;;;;;5.00;2.40;;;15.70;1.00;;;;;;5112707;28;20171;-76
2022/07/18 04:05:34;;;;;;;4.20;2.40;;;15.60;1.00;;;;;;5113311;28;20500;-75
2022/07/18 04:08:00;;;;;;;8.97;2.90;;;15.70;1.00;;;;;;5102510;28;20195;-75
2022/07/18 04:10:25;;;;;;;22.93;2.80;;;15.60;1.00;;;;;;5090878;28;20186;-75
2022/07/18 04:12:53;;;;;;;3.50;2.50;;;15.80;1.00;;;;;;5090896;28;20183;-76
2022/07/18 04:15:20;;;;;;;4.03;2.40;;;15.70;1.00;;;;;;5109673;28;20491;-75
2022/07/18 04:17:46;;;;;;;4.43;2.67;;;15.80;1.00;;;;;;5109545;28;20545;-75
2022/07/18 04:20:13;;;;;;;6.57;2.50;;;15.80;1.00;;;;;;5110694;28;20910;-75
2022/07/18 04:23:06;;;;;;;5.47;2.83;;;15.90;1.00;;;;;;5110068;28;20185;-75
2022/07/18 04:25:39;;;;;;;3.93;2.60;;;16.00;1.00;;;;;;5109223;28;20477;-75
2022/07/18 04:28:07;;;;;;;4.70;2.40;;;16.00;1.00;;;;;;5104544;28;20509;-75
2022/07/18 04:30:33;;;;;;;7.50;2.60;;;16.10;1.00;;;;;;5108757;28;20456;-75
2022/07/18 04:33:02;;;;;;;3.43;2.30;;;16.20;1.00;;;;;;5109157;28;20451;-75
2022/07/18 04:35:27;;;;;;;4.97;2.70;;;16.40;1.00;;;;;;5107560;28;20195;-75
2022/07/18 04:37:53;;;;;;;2.70;2.10;;;16.40;1.00;;;;;;5107064;28;21031;-76
2022/07/18 04:40:19;;;;;;;4.03;2.50;;;16.40;1.00;;;;;;5109547;28;20772;-75
2022/07/18 04:42:45;;;;;;;6.30;1.97;;;16.50;1.00;;;;;;5108187;28;20737;-76
2022/07/18 04:45:11;;;;;;;4.27;2.30;;;16.60;1.00;;;;;;5108977;28;20187;-75
2022/07/18 04:47:37;;;;;;;2.83;2.30;;;16.70;1.00;;;;;;5109576;28;20505;-76
2022/07/18 04:50:04;;;;;;;9.90;2.30;;;16.80;1.00;;;;;;5106981;28;20690;-75
2022/07/18 04:52:44;;;;;;;4.53;2.23;;;16.80;1.00;;;;;;5108958;28;20179;-75
2022/07/18 04:55:12;;;;;;;3.00;2.30;;;16.90;1.00;;;;;;5099422;28;20471;-75
2022/07/18 04:57:38;;;;;;;3.30;2.40;;;17.00;1.00;;;;;;5110582;28;20433;-75
2022/07/18 05:00:13;;;;;;;3.97;2.20;;;17.10;1.00;;;;;;5089844;28;20512;-75
2022/07/18 05:02:40;;;;;;;4.63;2.33;;;17.20;1.00;;;;;;5109113;28;20408;-75
2022/07/18 05:05:06;;;;;;;6.00;2.33;;;17.30;1.00;;;;;;5108259;28;20441;-76
2022/07/18 05:07:32;;;;;;;11.10;2.73;;;17.40;1.00;;;;;;5103546;28;20444;-75
2022/07/18 05:09:57;;;;;;;4.60;2.37;;;17.60;1.00;;;;;;5108413;28;20183;-75
2022/07/18 05:12:23;;;;;;;4.27;2.67;;;17.50;1.00;;;;;;5107268;28;20186;-75
2022/07/18 05:14:49;;;;;;;4.97;2.50;;;17.70;1.00;;;;;;5090391;28;20251;-76
2022/07/18 05:17:14;;;;;;;2.43;2.10;;;17.80;1.00;;;;;;5089108;28;20307;-76
2022/07/18 05:19:40;;;;;;;3.30;2.40;;;17.90;1.00;;;;;;5107824;28;20504;-75
2022/07/18 05:22:05;;;;;;;5.50;2.80;;;17.90;1.00;;;;;;5108260;28;20606;-75
2022/07/18 05:24:31;;;;;;;9.83;2.50;;;18.10;1.00;;;;;;5108288;28;20182;-75
2022/07/18 05:26:56;;;;;;;3.23;2.77;;;18.20;1.00;;;;;;5107918;28;20179;-75
2022/07/18 05:29:22;;;;;;;3.40;2.43;;;18.20;1.00;;;;;;5108720;28;20585;-75
2022/07/18 05:31:47;;;;;;;7.87;3.10;;;18.30;1.00;;;;;;5107143;27;20175;-76
2022/07/18 05:34:13;;;;;;;5.47;2.60;;;18.90;1.00;;;;;;5089345;28;20672;-75
2022/07/18 05:36:38;;;;;;;8.40;3.33;;;18.50;1.00;;;;;;5109222;28;20255;-75
2022/07/18 05:39:04;;;;;;;5.00;2.90;;;18.70;1.00;;;;;;5108276;28;20189;-75
2022/07/18 05:41:30;;;;;;;15.17;4.03;;;18.80;1.00;;;;;;5090279;28;20641;-76
2022/07/18 05:43:56;;;;;;;11.73;3.80;;;;;;;;;;5090192;28;20300;-76
2022/07/18 05:46:21;;;;;;;14.97;3.30;;;19.00;1.00;;;;;;5108334;28;20664;-78
2022/07/18 05:48:47;;;;;;;5.40;3.33;;;18.70;1.00;;;;;;5109928;28;20206;-76
2022/07/18 05:51:13;;;;;;;7.57;4.13;;;19.10;1.00;;;;;;5109280;28;20257;-75
2022/07/18 05:53:38;;;;;;;7.97;5.17;;;19.40;1.00;;;;;;5099772;28;20539;-76
2022/07/18 05:56:05;;;;;;;6.13;4.53;;;19.40;1.00;;;;;;5106310;28;20175;-75
2022/07/18 05:58:30;;;;;;;8.50;4.63;;;19.60;1.00;;;;;;5106746;28;20186;-75
2022/07/18 06:00:56;;;;;;;9.80;5.63;;;19.70;1.00;;;;;;5087561;28;20457;-76
2022/07/18 06:03:21;;;;;;;16.20;6.80;;;19.80;1.00;;;;;;5107225;28;20270;-75
2022/07/18 06:05:50;;;;;;;15.87;8.30;;;19.90;1.00;;;;;;5090408;28;20606;-75
2022/07/18 06:08:16;;;;;;;18.63;10.50;;;21.20;1.00;;;;;;5088172;28;20464;-75
2022/07/18 06:10:41;;;;;;;22.60;11.80;;;20.20;1.00;;;;;;5108285;28;20583;-76
2022/07/18 06:13:07;;;;;;;21.87;11.13;;;20.10;1.00;;;;;;5107298;28;20738;-75
2022/07/18 06:15:32;;;;;;;13.97;9.00;;;20.20;1.00;;;;;;5104458;28;20305;-75
2022/07/18 06:17:58;;;;;;;20.57;9.97;;;20.30;1.00;;;;;;5080963;28;20205;-76
2022/07/18 06:20:23;;;;;;;18.73;10.00;;;20.30;1.00;;;;;;5090252;28;20258;-76
2022/07/18 06:22:49;;;;;;;18.20;8.93;;;20.40;1.00;;;;;;5106762;28;20347;-75
2022/07/18 06:25:14;;;;;;;22.83;11.00;;;20.40;1.00;;;;;;5107365;28;20221;-76
2022/07/18 06:27:40;;;;;;;19.57;10.60;;;20.60;1.00;;;;;;5108302;28;20286;-76
2022/07/18 06:30:08;;;;;;;15.77;10.27;;;20.60;1.00;;;;;;5107160;28;20202;-75
2022/07/18 06:32:33;;;;;;;21.17;9.47;;;20.80;1.00;;;;;;5088061;28;20177;-76
2022/07/18 06:34:59;;;;;;;20.90;9.43;;;20.90;1.00;;;;;;5107983;28;20448;-76
2022/07/18 06:37:24;;;;;;;15.70;9.70;;;21.10;1.00;;;;;;5106832;28;20174;-76
2022/07/18 06:39:50;;;;;;;13.47;8.43;;;21.10;1.00;;;;;;5104978;28;20182;-75
2022/07/18 06:42:15;;;;;;;16.97;9.30;;;21.10;1.00;;;;;;5108171;28;20175;-75
2022/07/18 06:44:41;;;;;;;15.40;8.47;;;21.30;1.00;;;;;;5107102;28;20196;-75
2022/07/18 06:47:07;;;;;;;17.97;9.20;;;21.40;1.00;;;;;;5103668;28;20187;-75
2022/07/18 06:49:32;;;;;;;23.00;8.87;;;21.50;1.00;;;;;;5089391;28;20213;-75
2022/07/18 06:51:58;;;;;;;21.47;9.33;;;21.50;1.00;;;;;;5088964;28;20186;-76
2022/07/18 06:54:27;;;;;;;19.10;8.60;;;22.20;1.00;;;;;;5105090;28;20272;-76
2022/07/18 06:56:56;;;;;;;12.43;8.20;;;21.70;1.00;;;;;;5107274;28;20174;-76
2022/07/18 06:59:22;;;;;;;14.27;8.13;;;22.30;1.00;;;;;;5087326;28;20453;-75
2022/07/18 07:01:48;;;;;;;14.23;7.53;;;22.00;1.00;;;;;;5088640;28;20435;-76
2022/07/18 07:04:13;;;;;;;14.70;7.60;;;22.20;1.00;;;;;;5106481;28;20189;-76
2022/07/18 07:06:39;;;;;;;14.70;7.97;;;22.30;1.00;;;;;;5106811;28;20663;-76
2022/07/18 07:09:05;;;;;;;12.57;7.37;;;22.50;1.00;;;;;;5086753;28;20262;-76
2022/07/18 07:11:31;;;;;;;15.63;6.80;;;22.70;1.00;;;;;;5088141;28;20170;-76
2022/07/18 07:13:57;;;;;;;11.80;6.87;;;22.80;1.00;;;;;;5083519;28;20452;-75
2022/07/18 07:16:23;;;;;;;10.70;6.60;;;23.10;1.00;;;;;;5085849;28;20837;-76
2022/07/18 07:18:48;;;;;;;11.20;6.10;;;23.20;1.00;;;;;;5089909;28;20255;-76
2022/07/18 07:21:14;;;;;;;8.00;5.80;;;23.30;1.00;;;;;;5089202;28;20158;-76
2022/07/18 07:23:40;;;;;;;13.00;6.00;;;23.40;1.00;;;;;;5107410;28;20521;-76
2022/07/18 07:26:06;;;;;;;11.33;5.73;;;23.70;1.00;;;;;;5107522;28;20558;-76
2022/07/18 07:28:32;;;;;;;9.63;5.80;;;25.70;1.00;;;;;;5088824;28;20455;-77
2022/07/18 07:30:58;;;;;;;13.07;6.80;;;24.20;1.00;;;;;;5086999;28;20459;-76
2022/07/18 07:33:23;;;;;;;12.27;6.50;;;24.40;1.00;;;;;;5088005;28;20608;-76
2022/07/18 07:35:49;;;;;;;7.90;5.33;;;24.60;1.00;;;;;;5106091;28;20199;-76
2022/07/18 07:38:18;;;;;;;14.90;6.67;;;24.70;1.00;;;;;;5107060;28;20182;-76
2022/07/18 07:40:45;;;;;;;11.63;5.93;;;24.90;1.00;;;;;;5106411;28;20194;-76
2022/07/18 07:43:14;;;;;;;13.20;5.93;;;25.10;1.00;;;;;;5107524;28;20428;-76
2022/07/18 07:45:40;;;;;;;12.70;6.30;;;25.40;1.00;;;;;;5108828;28;20460;-76
2022/07/18 07:48:06;;;;;;;11.70;5.80;;;25.70;1.00;;;;;;5110334;28;20436;-76
2022/07/18 07:50:32;;;;;;;13.83;6.27;;;26.00;1.00;;;;;;5109667;28;20451;-76
2022/07/18 07:52:59;;;;;;;12.27;5.80;;;26.10;1.00;;;;;;5090144;28;20953;-76
2022/07/18 07:55:25;;;;;;;10.40;5.70;;;26.40;1.00;;;;;;5092017;28;20715;-76
2022/07/18 07:57:51;;;;;;;13.03;5.60;;;26.60;1.00;;;;;;5109609;28;21030;-76
2022/07/18 08:00:17;;;;;;;12.27;5.90;;;26.60;1.00;;;;;;5110621;28;20500;-77
2022/07/18 08:02:54;;;;;;;11.90;5.50;;;26.80;1.00;;;;;;5107401;28;20175;-76
2022/07/18 08:05:19;;;;;;;8.30;5.20;;;27.10;1.00;;;;;;5106449;28;20185;-76
2022/07/18 08:07:46;;;;;;;10.40;5.63;;;27.30;1.00;;;;;;5089026;28;20704;-76
2022/07/18 08:10:11;;;;;;;8.80;5.30;;;27.50;1.00;;;;;;5109197;28;20359;-76
2022/07/18 08:12:37;;;;;;;7.70;4.40;;;27.60;1.00;;;;;;5110557;28;20316;-76
2022/07/18 08:15:03;;;;;;;14.07;4.60;;;27.80;1.00;;;;;;5107536;28;20209;-76
2022/07/18 08:17:28;;;;;;;9.27;4.70;;;28.00;1.00;;;;;;5106185;28;20167;-75
2022/07/18 08:19:54;;;;;;;10.53;4.57;;;28.20;1.00;;;;;;5092034;28;20263;-76
2022/07/18 08:22:19;;;;;;;9.10;4.60;;;28.30;1.00;;;;;;5108687;28;20189;-76
2022/07/18 08:24:45;;;;;;;9.47;4.80;;;28.50;1.00;;;;;;5108360;28;20644;-77
2022/07/18 08:27:11;;;;;;;14.00;4.30;;;28.70;1.00;;;;;;5110717;28;20171;-76
2022/07/18 08:29:37;;;;;;;9.33;3.70;;;29.10;1.00;;;;;;5092410;28;20190;-78
2022/07/18 08:32:02;;;;;;;5.87;3.53;;;29.40;1.00;;;;;;5109915;28;20578;-76
2022/07/18 08:34:28;;;;;;;5.87;3.40;;;29.50;1.00;;;;;;5108932;28;20571;-76
2022/07/18 08:36:53;;;;;;;8.40;3.27;;;29.60;1.00;;;;;;5110430;28;20527;-77
2022/07/18 08:39:19;;;;;;;6.60;3.23;;;29.80;1.00;;;;;;5090080;28;20236;-76
2022/07/18 08:41:46;;;;;;;10.63;3.10;;;30.00;1.00;;;;;;5090769;28;20179;-76
2022/07/18 08:44:12;;;;;;;8.77;3.50;;;30.30;1.00;;;;;;5109403;28;20175;-77
2022/07/18 08:46:39;;;;;;;5.13;3.40;;;30.60;1.00;;;;;;5108426;28;20198;-76
2022/07/18 08:49:07;;;;;;;6.60;3.38;;;30.80;1.00;;;;;;5091270;28;20301;-78
2022/07/18 08:51:34;;;;;;;5.63;3.40;;;31.00;1.00;;;;;;5108169;28;20579;-76
2022/07/18 08:54:01;;;;;;;4.55;2.65;;;31.30;1.00;;;;;;5099752;28;20290;-76
2022/07/18 08:56:27;;;;;;;7.50;2.90;;;31.40;1.00;;;;;;5109694;28;20183;-76
2022/07/18 08:58:52;;;;;;;12.75;2.00;;;31.90;1.00;;;;;;5107964;28;20267;-76
2022/07/18 09:01:18;;;;;;;3.33;2.10;;;31.60;1.00;;;;;;5108920;28;20174;-77
2022/07/18 09:03:43;;;;;;;3.17;2.20;;;32.10;1.00;;;;;;5108436;28;20228;-77
2022/07/18 09:06:11;;;;;;;5.75;1.90;;;32.80;1.00;;;;;;5108683;28;20537;-78
2022/07/18 09:08:57;;;;;;;4.55;2.05;;;33.50;1.00;;;;;;5105695;28;20277;-78
2022/07/18 09:11:22;;;;;;;5.15;1.95;;;34.60;1.00;;;;;;5103106;28;20176;-77
2022/07/18 09:13:48;;;;;;;3.90;1.80;;;35.80;1.00;;;;;;5108498;28;20759;-77
2022/07/18 09:16:15;;;;;;;8.98;2.10;;;36.70;1.00;;;;;;5107412;28;20487;-77
2022/07/18 09:18:43;;;;;;;4.68;1.85;;;37.60;1.00;;;;;;5108641;28;20529;-77
2022/07/18 09:21:12;;;;;;;2.83;1.98;;;38.20;1.00;;;;;;5108176;28;20730;-77
2022/07/18 09:23:43;;;;;;;6.65;2.25;;;38.50;1.00;;;;;;5107877;28;20605;-77
2022/07/18 09:26:10;;;;;;;11.18;1.92;;;39.20;1.00;;;;;;5089993;28;20269;-77
2022/07/18 09:28:49;;;;;;;7.75;2.10;;;40.10;1.00;;;;;;5107775;28;20217;-78
2022/07/18 09:31:24;;;;;;;8.18;1.85;;;41.00;1.00;;;;;;5089117;28;20182;-78
2022/07/18 09:34:01;;;;;;;8.20;1.90;;;41.70;1.00;;;;;;5109438;28;20206;-78
2022/07/18 09:36:28;;;;;;;8.65;2.00;;;42.00;1.00;;;;;;5105945;28;20229;-80
2022/07/18 09:38:54;;;;;;;5.07;1.77;;;42.30;1.00;;;;;;5085951;28;21617;-78
2022/07/18 09:41:32;;;;;;;3.25;1.70;;;42.30;1.00;;;;;;5108567;28;20171;-78
2022/07/18 09:43:58;;;;;;;5.45;1.55;;;42.00;1.00;;;;;;5099369;28;20310;-78
2022/07/18 09:46:23;;;;;;;5.13;2.20;;;41.60;1.00;;;;;;5107106;28;20202;-80
2022/07/18 09:49:08;;;;;;;4.15;1.98;;;41.50;1.00;;;;;;5089153;28;20667;-78
2022/07/18 09:51:34;;;;;;;5.50;1.80;;;41.20;1.00;;;;;;5107055;28;20182;-79
2022/07/18 09:54:01;;;;;;;4.50;1.70;;;41.90;1.00;;;;;;5107390;28;20759;-78
2022/07/18 09:56:27;;;;;;;3.15;1.90;;;42.10;1.00;;;;;;5105568;28;20183;-78
2022/07/18 09:58:55;;;;;;;5.13;2.60;;;42.60;1.00;;;;;;5107254;28;20582;-78
2022/07/18 10:01:22;;;;;;;4.80;2.10;;;42.80;1.00;;;;;;5105839;28;20261;-78
2022/07/18 10:03:48;;;;;;;3.85;1.73;;;42.90;1.00;;;;;;5108441;28;20250;-78
2022/07/18 10:06:15;;;;;;;4.20;1.50;;;43.00;1.00;;;;;;5097614;27;20174;-78
2022/07/18 10:08:41;;;;;;;9.15;2.05;;;43.50;1.00;;;;;;5085016;28;20285;-78
2022/07/18 10:11:07;;;;;;;5.43;1.70;;;44.00;1.00;;;;;;5099493;28;20262;-78
2022/07/18 10:13:35;;;;;;;3.17;1.80;;;43.70;1.00;;;;;;5101863;28;20524;-78
2022/07/18 10:16:01;;;;;;;2.92;1.75;;;43.70;1.00;;;;;;5099943;28;20198;-78
2022/07/18 10:18:32;;;;;;;5.95;2.00;;;44.60;1.00;;;;;;5096094;28;20685;-78
2022/07/18 10:20:59;;;;;;;3.42;1.90;;;45.00;1.00;;;;;;5103954;28;20175;-78
2022/07/18 10:23:45;;;;;;;4.95;1.83;;;44.50;1.00;;;;;;5104310;28;20181;-78
2022/07/18 10:26:21;;;;;;;3.47;1.50;;;44.30;1.00;;;;;;5104194;28;20189;-80
2022/07/18 10:28:56;;;;;;;4.65;1.80;;;44.60;1.00;;;;;;5104213;28;20293;-78
2022/07/18 10:31:23;;;;;;;2.63;1.80;;;44.70;1.00;;;;;;5088283;28;20497;-78
2022/07/18 10:33:49;;;;;;;4.30;1.80;;;45.40;1.00;;;;;;5107810;28;20206;-78
2022/07/18 10:36:17;;;;;;;4.07;1.70;;;45.60;1.00;;;;;;5105867;28;20315;-79
2022/07/18 10:39:19;;;;;;;6.88;1.95;;;44.50;1.00;;;;;;5107293;28;20184;-77
2022/07/18 10:41:48;;;;;;;5.20;1.73;;;44.00;1.00;;;;;;5104299;28;20685;-79
2022/07/18 10:44:23;;;;;;;4.55;1.70;;;44.30;1.00;;;;;;5089144;28;20277;-78
2022/07/18 10:47:05;;;;;;;7.07;2.00;;;45.00;1.00;;;;;;5105570;28;20692;-77
2022/07/18 10:49:56;;;;;;;3.03;1.83;;;45.20;1.00;;;;;;5109080;28;20491;-78
2022/07/18 10:52:33;;;;;;;5.60;1.60;;;45.40;1.00;;;;;;5090754;28;20178;-78
2022/07/18 10:57:29;;;;;;;5.88;1.60;;;45.90;1.00;;;;;;5107207;28;20178;-78
2022/07/18 11:00:13;;;;;;;3.95;1.50;;;46.30;1.00;;;;;;5104749;28;20239;-78
2022/07/18 11:02:44;;;;;;;5.05;1.40;;;46.90;1.00;;;;;;5106492;28;20178;-78
2022/07/18 11:05:24;;;;;;;2.80;1.70;;;47.30;1.00;;;;;;5089134;28;20178;-78
2022/07/18 11:07:59;;;;;;;2.88;1.50;;;47.60;1.00;;;;;;5105486;28;20717;-78
2022/07/18 11:10:44;;;;;;;2.78;1.70;;;47.80;1.00;;;;;;5086216;28;20180;-78
2022/07/18 11:13:27;;;;;;;6.15;1.40;;;47.30;1.00;;;;;;5104774;28;20182;-78
2022/07/18 11:16:10;;;;;;;2.53;1.55;;;47.00;1.00;;;;;;5105391;28;20286;-80
2022/07/18 11:18:42;;;;;;;4.93;1.80;;;47.00;1.00;;;;;;5092368;28;20182;-78
2022/07/18 11:21:21;;;;;;;3.05;1.55;;;46.30;1.00;;;;;;5109456;28;20171;-78
2022/07/18 11:23:49;;;;;;;6.32;1.60;;;46.00;1.00;;;;;;5091412;28;20224;-78
2022/07/18 11:26:20;;;;;;;3.35;1.67;;;45.60;1.00;;;;;;5108779;28;20220;-79
2022/07/18 11:28:50;;;;;;;3.58;1.60;;;46.40;1.00;;;;;;5109833;28;21440;-78
2022/07/18 11:31:15;;;;;;;2.38;1.70;;;46.20;1.00;;;;;;5108755;28;20246;-78
2022/07/18 11:33:46;;;;;;;3.83;1.63;;;45.50;1.00;;;;;;5110543;28;20258;-78
2022/07/18 11:36:17;;;;;;;5.88;1.90;;;45.80;1.00;;;;;;5110839;28;20261;-80
2022/07/18 11:38:51;;;;;;;3.72;1.80;;;46.10;1.00;;;;;;5109612;28;20290;-78
2022/07/18 11:41:18;;;;;;;8.32;1.80;;;46.20;1.00;;;;;;5110412;28;20162;-80
2022/07/18 11:43:45;;;;;;;4.72;1.70;;;46.60;1.00;;;;;;5109013;28;20735;-78
2022/07/18 11:46:13;;;;;;;2.70;1.80;;;47.10;1.00;;;;;;5110840;28;20378;-80
2022/07/18 11:48:40;;;;;;;3.08;1.60;;;46.60;1.00;;;;;;5091723;28;20684;-78
2022/07/18 11:51:19;;;;;;;6.03;1.88;;;46.20;1.00;;;;;;5109820;28;20193;-78
2022/07/18 11:53:47;;;;;;;3.15;1.90;;;46.20;1.00;;;;;;5091800;28;20170;-78
2022/07/18 11:56:13;;;;;;;7.47;1.70;;;46.50;1.00;;;;;;5108909;28;20651;-77
2022/07/18 11:58:40;;;;;;;8.18;1.95;;;47.80;1.00;;;;;;5108868;28;20226;-79
2022/07/18 12:01:07;;;;;;;2.75;1.58;;;48.90;1.00;;;;;;5109128;28;20170;-78
2022/07/18 12:03:39;;;;;;;3.28;1.70;;;48.90;1.00;;;;;;5110745;28;20193;-78
2022/07/18 12:06:18;;;;;;;2.40;1.52;;;48.30;1.00;;;;;;5107260;28;20505;-78
2022/07/18 12:08:46;;;;;;;11.30;1.90;;;48.70;1.00;;;;;;5108662;28;20202;-78
2022/07/18 12:11:34;;;;;;;2.90;1.60;;;48.60;1.00;;;;;;5108971;28;20380;-78
2022/07/18 12:14:08;;;;;;;4.72;2.15;;;48.40;1.00;;;;;;5110427;28;20201;-78
2022/07/18 12:16:41;;;;;;;4.72;1.60;;;48.50;1.00;;;;;;5107108;28;20363;-78
2022/07/18 12:19:16;;;;;;;7.47;1.75;;;48.60;1.00;;;;;;5102511;28;20212;-78
2022/07/18 12:21:46;;;;;;;2.97;1.85;;;49.00;1.00;;;;;;5108689;28;20174;-78
2022/07/18 12:24:19;;;;;;;6.70;1.60;;;48.40;1.00;;;;;;5109253;28;20243;-78
2022/07/18 12:26:45;;;;;;;6.63;1.73;;;47.00;1.00;;;;;;5108428;28;20179;-78
2022/07/18 12:29:10;;;;;;;2.72;1.98;;;47.40;1.00;;;;;;5090761;28;20212;-80
2022/07/18 12:31:45;;;;;;;5.97;1.80;;;47.10;1.00;;;;;;5109573;28;20510;-76
2022/07/18 12:34:13;;;;;;;5.47;1.73;;;46.80;1.00;;;;;;5111021;28;20202;-77
2022/07/18 12:36:57;;;;;;;4.47;1.58;;;47.50;1.00;;;;;;5109982;28;20177;-77
2022/07/18 12:39:30;;;;;;;3.15;1.70;;;48.00;1.00;;;;;;5103451;28;20205;-77
2022/07/18 12:41:57;;;;;;;5.25;1.80;;;47.80;1.00;;;;;;5089555;28;20877;-77
2022/07/18 12:44:24;;;;;;;6.88;2.08;;;48.30;1.00;;;;;;5109913;28;20256;-78
2022/07/18 12:46:49;;;;;;;3.53;1.73;;;49.00;1.00;;;;;;5089233;28;20266;-77
2022/07/18 12:49:15;;;;;;;3.60;1.85;;;48.80;1.00;;;;;;5108428;28;20289;-78
2022/07/18 12:51:40;;;;;;;3.25;1.65;;;48.20;1.00;;;;;;5091345;28;20288;-78
2022/07/18 12:54:06;;;;;;;3.50;1.63;;;49.10;1.00;;;;;;5107659;28;20201;-78
2022/07/18 12:56:31;;;;;;;6.68;2.10;;;49.60;1.00;;;;;;5106342;28;20214;-78
2022/07/18 12:58:57;;;;;;;3.15;1.52;;;49.50;1.00;;;;;;5088028;28;20285;-78
2022/07/18 13:01:22;;;;;;;5.40;1.60;;;49.80;1.00;;;;;;5107463;28;20206;-79
2022/07/18 13:03:48;;;;;;;2.63;1.52;;;49.90;1.00;;;;;;5108081;28;20613;-78